sensor_id;sensor_type;location;lat;lon;timestamp;P1;durP1;ratioP1;P2;durP2;ratioP2
19609;SDS011;9952;47.122;-1.638;2023-04-09T00:03:53;6.17;;;4.20;;
19609;SDS011;9952;47.122;-1.638;2023-04-09T00:08:34;6.67;;;3.93;;
19609;SDS011;9952;47.122;-1.638;2023-04-09T00:13:14;6.73;;;4.03;;
19609;SDS011;9952;47.122;-1.638;2023-04-09T00:17:55;6.77;;;4.13;;
19609;SDS011;9952;47.122;-1.638;2023-04-09T00:22:36;10.80;;;4.40;;
19609;SDS011;9952;47.122;-1.638;2023-04-09T00:27:17;6.87;;;3.70;;
19609;SDS011;9952;47.122;-1.638;2023-04-09T00:31:58;7.17;;;3.83;;
19609;SDS011;9952;47.122;-1.638;2023-04-09T00:36:38;5.70;;;4.10;;
19609;SDS011;9952;47.122;-1.638;2023-04-09T00:41:19;6.67;;;4.33;;
19609;SDS011;9952;47.122;-1.638;2023-04-09T00:46:00;7.43;;;4.53;;
19609;SDS011;9952;47.122;-1.638;2023-04-09T00:50:42;8.27;;;4.17;;
19609;SDS011;9952;47.122;-1.638;2023-04-09T00:55:22;6.23;;;4.73;;
19609;SDS011;9952;47.122;-1.638;2023-04-09T01:00:04;6.47;;;4.10;;
19609;SDS011;9952;47.122;-1.638;2023-04-09T01:04:46;8.50;;;4.60;;
19609;SDS011;9952;47.122;-1.638;2023-04-09T01:09:47;8.50;;;4.27;;
19609;SDS011;9952;47.122;-1.638;2023-04-09T01:14:37;8.40;;;5.37;;
19609;SDS011;9952;47.122;-1.638;2023-04-09T01:19:31;10.20;;;4.90;;
19609;SDS011;9952;47.122;-1.638;2023-04-09T01:24:32;8.20;;;5.07;;
19609;SDS011;9952;47.122;-1.638;2023-04-09T01:29:26;9.40;;;4.90;;
19609;SDS011;9952;47.122;-1.638;2023-04-09T01:34:13;7.83;;;5.00;;
19609;SDS011;9952;47.122;-1.638;2023-04-09T01:38:55;7.33;;;4.63;;
19609;SDS011;9952;47.122;-1.638;2023-04-09T01:43:37;7.80;;;4.47;;
19609;SDS011;9952;47.122;-1.638;2023-04-09T01:48:18;10.07;;;5.17;;
19609;SDS011;9952;47.122;-1.638;2023-04-09T01:53:00;10.03;;;4.83;;
19609;SDS011;9952;47.122;-1.638;2023-04-09T01:57:41;7.60;;;5.17;;
19609;SDS011;9952;47.122;-1.638;2023-04-09T02:02:24;7.37;;;4.80;;
19609;SDS011;9952;47.122;-1.638;2023-04-09T02:07:22;6.23;;;4.20;;
19609;SDS011;9952;47.122;-1.638;2023-04-09T02:12:15;7.17;;;4.93;;
19609;SDS011;9952;47.122;-1.638;2023-04-09T02:16:58;6.57;;;4.80;;
19609;SDS011;9952;47.122;-1.638;2023-04-09T02:21:40;5.53;;;4.20;;
19609;SDS011;9952;47.122;-1.638;2023-04-09T02:26:21;7.33;;;4.83;;
19609;SDS011;9952;47.122;-1.638;2023-04-09T02:31:03;8.63;;;5.17;;
19609;SDS011;9952;47.122;-1.638;2023-04-09T02:35:44;10.30;;;5.80;;
19609;SDS011;9952;47.122;-1.638;2023-04-09T02:40:25;7.67;;;4.50;;
19609;SDS011;9952;47.122;-1.638;2023-04-09T02:45:06;7.00;;;4.90;;
19609;SDS011;9952;47.122;-1.638;2023-04-09T02:49:47;8.20;;;5.20;;
19609;SDS011;9952;47.122;-1.638;2023-04-09T02:54:28;9.93;;;4.87;;
19609;SDS011;9952;47.122;-1.638;2023-04-09T02:59:08;7.67;;;4.57;;
19609;SDS011;9952;47.122;-1.638;2023-04-09T03:03:50;9.20;;;5.30;;
19609;SDS011;9952;47.122;-1.638;2023-04-09T03:08:30;8.37;;;5.07;;
19609;SDS011;9952;47.122;-1.638;2023-04-09T03:13:11;9.37;;;4.90;;
19609;SDS011;9952;47.122;-1.638;2023-04-09T03:17:52;7.33;;;4.90;;
19609;SDS011;9952;47.122;-1.638;2023-04-09T03:22:36;10.17;;;5.50;;
19609;SDS011;9952;47.122;-1.638;2023-04-09T03:27:17;9.03;;;5.37;;
19609;SDS011;9952;47.122;-1.638;2023-04-09T03:31:58;10.47;;;5.77;;
19609;SDS011;9952;47.122;-1.638;2023-04-09T03:36:39;16.67;;;7.30;;
19609;SDS011;9952;47.122;-1.638;2023-04-09T03:41:20;24.53;;;10.40;;
19609;SDS011;9952;47.122;-1.638;2023-04-09T03:46:00;28.63;;;11.60;;
19609;SDS011;9952;47.122;-1.638;2023-04-09T03:50:41;30.60;;;12.13;;
19609;SDS011;9952;47.122;-1.638;2023-04-09T03:55:22;18.57;;;9.70;;
19609;SDS011;9952;47.122;-1.638;2023-04-09T04:00:03;16.17;;;8.70;;
19609;SDS011;9952;47.122;-1.638;2023-04-09T04:04:44;15.23;;;7.93;;
19609;SDS011;9952;47.122;-1.638;2023-04-09T04:09:25;15.27;;;7.20;;
19609;SDS011;9952;47.122;-1.638;2023-04-09T04:14:07;13.07;;;7.17;;
19609;SDS011;9952;47.122;-1.638;2023-04-09T04:18:48;13.57;;;7.27;;
19609;SDS011;9952;47.122;-1.638;2023-04-09T04:23:29;11.07;;;6.10;;
19609;SDS011;9952;47.122;-1.638;2023-04-09T04:28:09;10.17;;;6.20;;
19609;SDS011;9952;47.122;-1.638;2023-04-09T04:32:50;9.27;;;5.60;;
19609;SDS011;9952;47.122;-1.638;2023-04-09T04:37:31;7.33;;;5.23;;
19609;SDS011;9952;47.122;-1.638;2023-04-09T04:42:11;9.30;;;5.23;;
19609;SDS011;9952;47.122;-1.638;2023-04-09T04:46:52;9.70;;;5.13;;
19609;SDS011;9952;47.122;-1.638;2023-04-09T04:51:33;7.73;;;5.37;;
19609;SDS011;9952;47.122;-1.638;2023-04-09T04:56:14;7.33;;;5.23;;
19609;SDS011;9952;47.122;-1.638;2023-04-09T05:00:55;9.07;;;5.00;;
19609;SDS011;9952;47.122;-1.638;2023-04-09T05:05:36;7.50;;;5.20;;
19609;SDS011;9952;47.122;-1.638;2023-04-09T05:10:17;8.43;;;5.47;;
19609;SDS011;9952;47.122;-1.638;2023-04-09T05:14:57;10.30;;;5.23;;
19609;SDS011;9952;47.122;-1.638;2023-04-09T05:19:38;6.47;;;4.50;;
19609;SDS011;9952;47.122;-1.638;2023-04-09T05:24:19;7.37;;;4.63;;
19609;SDS011;9952;47.122;-1.638;2023-04-09T05:29:00;6.77;;;4.87;;
19609;SDS011;9952;47.122;-1.638;2023-04-09T05:33:40;6.93;;;4.80;;
19609;SDS011;9952;47.122;-1.638;2023-04-09T05:38:21;7.80;;;5.03;;
19609;SDS011;9952;47.122;-1.638;2023-04-09T05:43:02;8.37;;;5.40;;
19609;SDS011;9952;47.122;-1.638;2023-04-09T05:47:43;9.63;;;5.70;;
19609;SDS011;9952;47.122;-1.638;2023-04-09T05:52:24;8.70;;;5.07;;
19609;SDS011;9952;47.122;-1.638;2023-04-09T05:57:05;8.63;;;5.50;;
19609;SDS011;9952;47.122;-1.638;2023-04-09T06:01:46;8.30;;;5.70;;
19609;SDS011;9952;47.122;-1.638;2023-04-09T06:06:27;9.70;;;5.33;;
19609;SDS011;9952;47.122;-1.638;2023-04-09T06:11:08;9.93;;;5.30;;
19609;SDS011;9952;47.122;-1.638;2023-04-09T06:15:49;6.53;;;5.33;;
19609;SDS011;9952;47.122;-1.638;2023-04-09T06:20:30;12.57;;;5.93;;
19609;SDS011;9952;47.122;-1.638;2023-04-09T06:25:11;10.90;;;5.87;;
19609;SDS011;9952;47.122;-1.638;2023-04-09T06:29:51;8.07;;;5.63;;
19609;SDS011;9952;47.122;-1.638;2023-04-09T06:34:32;16.33;;;5.73;;
19609;SDS011;9952;47.122;-1.638;2023-04-09T06:39:13;9.03;;;5.80;;
19609;SDS011;9952;47.122;-1.638;2023-04-09T06:43:54;10.40;;;5.40;;
19609;SDS011;9952;47.122;-1.638;2023-04-09T06:48:35;8.00;;;4.83;;
19609;SDS011;9952;47.122;-1.638;2023-04-09T06:53:15;7.13;;;5.07;;
19609;SDS011;9952;47.122;-1.638;2023-04-09T06:57:57;8.60;;;5.23;;
19609;SDS011;9952;47.122;-1.638;2023-04-09T07:02:37;8.63;;;4.87;;
19609;SDS011;9952;47.122;-1.638;2023-04-09T07:07:18;10.03;;;4.80;;
19609;SDS011;9952;47.122;-1.638;2023-04-09T07:11:59;8.97;;;5.27;;
19609;SDS011;9952;47.122;-1.638;2023-04-09T07:16:40;8.23;;;5.13;;
19609;SDS011;9952;47.122;-1.638;2023-04-09T07:21:21;8.50;;;5.40;;
19609;SDS011;9952;47.122;-1.638;2023-04-09T07:26:03;6.53;;;4.50;;
19609;SDS011;9952;47.122;-1.638;2023-04-09T07:30:44;6.67;;;4.70;;
19609;SDS011;9952;47.122;-1.638;2023-04-09T07:35:26;5.27;;;4.07;;
19609;SDS011;9952;47.122;-1.638;2023-04-09T07:40:06;8.23;;;4.80;;
19609;SDS011;9952;47.122;-1.638;2023-04-09T07:44:48;5.90;;;4.10;;
19609;SDS011;9952;47.122;-1.638;2023-04-09T07:49:28;9.93;;;4.40;;
19609;SDS011;9952;47.122;-1.638;2023-04-09T07:54:09;6.80;;;4.30;;
19609;SDS011;9952;47.122;-1.638;2023-04-09T07:58:50;5.80;;;4.37;;
19609;SDS011;9952;47.122;-1.638;2023-04-09T08:03:31;6.10;;;4.27;;
19609;SDS011;9952;47.122;-1.638;2023-04-09T08:08:12;6.07;;;4.07;;
19609;SDS011;9952;47.122;-1.638;2023-04-09T08:12:53;6.50;;;4.10;;
19609;SDS011;9952;47.122;-1.638;2023-04-09T08:17:33;6.43;;;4.17;;
19609;SDS011;9952;47.122;-1.638;2023-04-09T08:22:16;5.80;;;4.27;;
19609;SDS011;9952;47.122;-1.638;2023-04-09T08:26:57;7.43;;;4.30;;
19609;SDS011;9952;47.122;-1.638;2023-04-09T08:31:37;9.13;;;4.63;;
19609;SDS011;9952;47.122;-1.638;2023-04-09T08:36:19;8.13;;;4.47;;
19609;SDS011;9952;47.122;-1.638;2023-04-09T08:41:00;5.63;;;3.90;;
19609;SDS011;9952;47.122;-1.638;2023-04-09T08:45:41;7.70;;;3.70;;
19609;SDS011;9952;47.122;-1.638;2023-04-09T08:50:22;4.07;;;3.43;;
19609;SDS011;9952;47.122;-1.638;2023-04-09T08:55:03;5.63;;;3.60;;
19609;SDS011;9952;47.122;-1.638;2023-04-09T08:59:45;5.37;;;3.23;;
19609;SDS011;9952;47.122;-1.638;2023-04-09T09:04:25;5.83;;;3.40;;
19609;SDS011;9952;47.122;-1.638;2023-04-09T09:09:24;3.47;;;3.10;;
19609;SDS011;9952;47.122;-1.638;2023-04-09T09:14:06;3.60;;;2.87;;
19609;SDS011;9952;47.122;-1.638;2023-04-09T09:18:48;3.33;;;3.03;;
19609;SDS011;9952;47.122;-1.638;2023-04-09T09:23:35;4.03;;;3.10;;
19609;SDS011;9952;47.122;-1.638;2023-04-09T09:28:16;4.50;;;2.93;;
19609;SDS011;9952;47.122;-1.638;2023-04-09T09:33:06;3.67;;;2.60;;
19609;SDS011;9952;47.122;-1.638;2023-04-09T09:38:03;3.83;;;3.13;;
19609;SDS011;9952;47.122;-1.638;2023-04-09T09:42:53;4.87;;;2.70;;
19609;SDS011;9952;47.122;-1.638;2023-04-09T09:47:37;3.57;;;2.67;;
19609;SDS011;9952;47.122;-1.638;2023-04-09T09:52:20;3.87;;;2.60;;
19609;SDS011;9952;47.122;-1.638;2023-04-09T09:57:05;5.07;;;2.93;;
19609;SDS011;9952;47.122;-1.638;2023-04-09T10:02:03;4.57;;;3.00;;
19609;SDS011;9952;47.122;-1.638;2023-04-09T10:06:44;3.70;;;2.60;;
19609;SDS011;9952;47.122;-1.638;2023-04-09T10:11:26;4.70;;;2.70;;
19609;SDS011;9952;47.122;-1.638;2023-04-09T10:16:07;5.27;;;2.67;;
19609;SDS011;9952;47.122;-1.638;2023-04-09T10:20:58;4.63;;;2.90;;
19609;SDS011;9952;47.122;-1.638;2023-04-09T10:26:01;3.67;;;2.57;;
19609;SDS011;9952;47.122;-1.638;2023-04-09T10:30:42;4.33;;;3.03;;
19609;SDS011;9952;47.122;-1.638;2023-04-09T10:35:25;3.03;;;2.57;;
19609;SDS011;9952;47.122;-1.638;2023-04-09T10:40:07;3.70;;;2.77;;
19609;SDS011;9952;47.122;-1.638;2023-04-09T10:45:10;4.40;;;2.83;;
19609;SDS011;9952;47.122;-1.638;2023-04-09T10:49:59;5.43;;;3.07;;
19609;SDS011;9952;47.122;-1.638;2023-04-09T11:00:28;3.87;;;2.80;;
19609;SDS011;9952;47.122;-1.638;2023-04-09T11:05:20;3.03;;;2.30;;
19609;SDS011;9952;47.122;-1.638;2023-04-09T11:10:07;3.83;;;2.43;;
19609;SDS011;9952;47.122;-1.638;2023-04-09T11:14:48;5.90;;;3.00;;
19609;SDS011;9952;47.122;-1.638;2023-04-09T11:19:29;3.37;;;1.50;;
19609;SDS011;9952;47.122;-1.638;2023-04-09T11:24:13;2.47;;;1.27;;
19609;SDS011;9952;47.122;-1.638;2023-04-09T11:28:55;2.17;;;1.50;;
19609;SDS011;9952;47.122;-1.638;2023-04-09T11:33:37;1.83;;;1.40;;
19609;SDS011;9952;47.122;-1.638;2023-04-09T11:38:17;3.07;;;1.30;;
19609;SDS011;9952;47.122;-1.638;2023-04-09T11:42:58;1.27;;;0.63;;
19609;SDS011;9952;47.122;-1.638;2023-04-09T11:47:40;1.50;;;0.83;;
19609;SDS011;9952;47.122;-1.638;2023-04-09T11:52:22;1.43;;;0.70;;
19609;SDS011;9952;47.122;-1.638;2023-04-09T11:57:02;0.70;;;0.60;;
19609;SDS011;9952;47.122;-1.638;2023-04-09T12:01:49;1.57;;;0.73;;
19609;SDS011;9952;47.122;-1.638;2023-04-09T12:06:30;1.00;;;0.77;;
19609;SDS011;9952;47.122;-1.638;2023-04-09T12:11:13;1.83;;;1.00;;
19609;SDS011;9952;47.122;-1.638;2023-04-09T12:15:55;0.73;;;0.73;;
19609;SDS011;9952;47.122;-1.638;2023-04-09T12:20:36;1.60;;;1.10;;
19609;SDS011;9952;47.122;-1.638;2023-04-09T12:25:26;1.03;;;0.97;;
19609;SDS011;9952;47.122;-1.638;2023-04-09T12:30:07;2.73;;;1.70;;
19609;SDS011;9952;47.122;-1.638;2023-04-09T12:34:50;1.80;;;1.20;;
19609;SDS011;9952;47.122;-1.638;2023-04-09T12:39:30;2.20;;;2.00;;
19609;SDS011;9952;47.122;-1.638;2023-04-09T12:44:11;2.33;;;1.10;;
19609;SDS011;9952;47.122;-1.638;2023-04-09T12:48:52;1.90;;;1.10;;
19609;SDS011;9952;47.122;-1.638;2023-04-09T12:53:33;0.87;;;0.87;;
19609;SDS011;9952;47.122;-1.638;2023-04-09T12:58:13;7.47;;;2.00;;
19609;SDS011;9952;47.122;-1.638;2023-04-09T13:02:54;1.47;;;1.13;;
19609;SDS011;9952;47.122;-1.638;2023-04-09T13:07:35;2.17;;;0.70;;
19609;SDS011;9952;47.122;-1.638;2023-04-09T13:12:16;0.80;;;0.80;;
19609;SDS011;9952;47.122;-1.638;2023-04-09T13:16:57;1.23;;;0.80;;
19609;SDS011;9952;47.122;-1.638;2023-04-09T13:21:38;6.50;;;3.17;;
19609;SDS011;9952;47.122;-1.638;2023-04-09T13:26:19;4.53;;;2.30;;
19609;SDS011;9952;47.122;-1.638;2023-04-09T13:31:00;1.07;;;0.67;;
19609;SDS011;9952;47.122;-1.638;2023-04-09T13:35:42;1.43;;;0.60;;
19609;SDS011;9952;47.122;-1.638;2023-04-09T13:40:22;1.53;;;0.70;;
19609;SDS011;9952;47.122;-1.638;2023-04-09T13:45:03;0.80;;;0.60;;
19609;SDS011;9952;47.122;-1.638;2023-04-09T13:49:45;5.33;;;1.90;;
19609;SDS011;9952;47.122;-1.638;2023-04-09T13:54:25;0.80;;;0.80;;
19609;SDS011;9952;47.122;-1.638;2023-04-09T13:59:06;1.00;;;0.50;;
19609;SDS011;9952;47.122;-1.638;2023-04-09T14:03:47;0.60;;;0.60;;
19609;SDS011;9952;47.122;-1.638;2023-04-09T14:08:28;2.13;;;1.30;;
19609;SDS011;9952;47.122;-1.638;2023-04-09T14:13:09;2.03;;;0.80;;
19609;SDS011;9952;47.122;-1.638;2023-04-09T14:17:51;3.13;;;1.33;;
19609;SDS011;9952;47.122;-1.638;2023-04-09T14:22:32;2.00;;;0.80;;
19609;SDS011;9952;47.122;-1.638;2023-04-09T14:27:12;2.20;;;0.70;;
19609;SDS011;9952;47.122;-1.638;2023-04-09T14:31:53;0.90;;;0.70;;
19609;SDS011;9952;47.122;-1.638;2023-04-09T14:36:34;1.83;;;0.70;;
19609;SDS011;9952;47.122;-1.638;2023-04-09T14:41:15;1.00;;;0.60;;
19609;SDS011;9952;47.122;-1.638;2023-04-09T14:45:56;1.40;;;0.50;;
19609;SDS011;9952;47.122;-1.638;2023-04-09T14:50:36;1.23;;;0.80;;
19609;SDS011;9952;47.122;-1.638;2023-04-09T14:55:17;0.67;;;0.67;;
19609;SDS011;9952;47.122;-1.638;2023-04-09T14:59:58;1.20;;;0.80;;
19609;SDS011;9952;47.122;-1.638;2023-04-09T15:04:39;0.83;;;0.70;;
19609;SDS011;9952;47.122;-1.638;2023-04-09T15:09:20;0.83;;;0.60;;
19609;SDS011;9952;47.122;-1.638;2023-04-09T15:14:01;0.87;;;0.77;;
19609;SDS011;9952;47.122;-1.638;2023-04-09T15:18:42;1.40;;;0.80;;
19609;SDS011;9952;47.122;-1.638;2023-04-09T15:23:22;0.83;;;0.80;;
19609;SDS011;9952;47.122;-1.638;2023-04-09T15:28:03;0.87;;;0.80;;
19609;SDS011;9952;47.122;-1.638;2023-04-09T15:32:45;1.37;;;1.00;;
19609;SDS011;9952;47.122;-1.638;2023-04-09T15:37:26;1.83;;;1.00;;
19609;SDS011;9952;47.122;-1.638;2023-04-09T15:42:06;1.93;;;0.90;;
19609;SDS011;9952;47.122;-1.638;2023-04-09T15:46:47;2.30;;;0.90;;
19609;SDS011;9952;47.122;-1.638;2023-04-09T15:51:28;1.80;;;0.73;;
19609;SDS011;9952;47.122;-1.638;2023-04-09T15:56:10;2.10;;;1.10;;
19609;SDS011;9952;47.122;-1.638;2023-04-09T16:00:54;1.70;;;1.10;;
19609;SDS011;9952;47.122;-1.638;2023-04-09T16:05:35;2.80;;;1.03;;
19609;SDS011;9952;47.122;-1.638;2023-04-09T16:10:16;2.30;;;1.50;;
19609;SDS011;9952;47.122;-1.638;2023-04-09T16:14:57;1.33;;;0.90;;
19609;SDS011;9952;47.122;-1.638;2023-04-09T16:19:38;2.53;;;1.70;;
19609;SDS011;9952;47.122;-1.638;2023-04-09T16:24:19;1.07;;;0.67;;
19609;SDS011;9952;47.122;-1.638;2023-04-09T16:29:00;1.00;;;0.90;;
19609;SDS011;9952;47.122;-1.638;2023-04-09T16:33:43;2.77;;;1.57;;
19609;SDS011;9952;47.122;-1.638;2023-04-09T16:38:23;1.20;;;1.10;;
19609;SDS011;9952;47.122;-1.638;2023-04-09T16:43:06;0.70;;;0.67;;
19609;SDS011;9952;47.122;-1.638;2023-04-09T16:47:47;1.87;;;0.90;;
19609;SDS011;9952;47.122;-1.638;2023-04-09T16:52:28;1.33;;;0.90;;
19609;SDS011;9952;47.122;-1.638;2023-04-09T16:57:09;3.47;;;1.33;;
19609;SDS011;9952;47.122;-1.638;2023-04-09T17:01:50;1.97;;;1.10;;
19609;SDS011;9952;47.122;-1.638;2023-04-09T17:06:31;3.13;;;1.20;;
19609;SDS011;9952;47.122;-1.638;2023-04-09T17:11:15;2.37;;;1.33;;
19609;SDS011;9952;47.122;-1.638;2023-04-09T17:15:56;1.93;;;0.93;;
19609;SDS011;9952;47.122;-1.638;2023-04-09T17:20:37;2.00;;;0.97;;
19609;SDS011;9952;47.122;-1.638;2023-04-09T17:25:18;2.53;;;1.33;;
19609;SDS011;9952;47.122;-1.638;2023-04-09T17:29:59;10.17;;;1.97;;
19609;SDS011;9952;47.122;-1.638;2023-04-09T17:34:40;3.27;;;1.50;;
19609;SDS011;9952;47.122;-1.638;2023-04-09T17:39:22;4.17;;;1.97;;
19609;SDS011;9952;47.122;-1.638;2023-04-09T17:44:05;3.07;;;1.40;;
19609;SDS011;9952;47.122;-1.638;2023-04-09T17:48:47;1.50;;;1.13;;
19609;SDS011;9952;47.122;-1.638;2023-04-09T17:53:27;1.77;;;1.07;;
19609;SDS011;9952;47.122;-1.638;2023-04-09T17:58:08;5.70;;;1.33;;
19609;SDS011;9952;47.122;-1.638;2023-04-09T18:02:52;2.40;;;1.37;;
19609;SDS011;9952;47.122;-1.638;2023-04-09T18:07:33;2.00;;;1.10;;
19609;SDS011;9952;47.122;-1.638;2023-04-09T18:12:14;1.10;;;1.00;;
19609;SDS011;9952;47.122;-1.638;2023-04-09T18:16:55;2.07;;;1.20;;
19609;SDS011;9952;47.122;-1.638;2023-04-09T18:21:36;3.23;;;1.20;;
19609;SDS011;9952;47.122;-1.638;2023-04-09T18:26:16;1.27;;;1.13;;
19609;SDS011;9952;47.122;-1.638;2023-04-09T18:30:57;3.00;;;1.40;;
19609;SDS011;9952;47.122;-1.638;2023-04-09T18:35:38;5.80;;;1.27;;
19609;SDS011;9952;47.122;-1.638;2023-04-09T18:40:19;3.73;;;1.50;;
19609;SDS011;9952;47.122;-1.638;2023-04-09T18:45:00;2.00;;;1.40;;
19609;SDS011;9952;47.122;-1.638;2023-04-09T18:49:40;2.00;;;1.23;;
19609;SDS011;9952;47.122;-1.638;2023-04-09T18:54:21;1.70;;;1.20;;
19609;SDS011;9952;47.122;-1.638;2023-04-09T18:59:02;2.13;;;0.97;;
19609;SDS011;9952;47.122;-1.638;2023-04-09T19:03:43;1.37;;;1.20;;
19609;SDS011;9952;47.122;-1.638;2023-04-09T19:08:24;2.50;;;1.33;;
19609;SDS011;9952;47.122;-1.638;2023-04-09T19:13:04;3.17;;;1.23;;
19609;SDS011;9952;47.122;-1.638;2023-04-09T19:17:45;2.70;;;1.40;;
19609;SDS011;9952;47.122;-1.638;2023-04-09T19:22:27;4.77;;;1.30;;
19609;SDS011;9952;47.122;-1.638;2023-04-09T19:27:08;2.20;;;1.30;;
19609;SDS011;9952;47.122;-1.638;2023-04-09T19:31:50;2.47;;;1.17;;
19609;SDS011;9952;47.122;-1.638;2023-04-09T19:36:31;2.83;;;1.30;;
19609;SDS011;9952;47.122;-1.638;2023-04-09T19:41:12;2.17;;;1.50;;
19609;SDS011;9952;47.122;-1.638;2023-04-09T19:45:53;1.83;;;1.37;;
19609;SDS011;9952;47.122;-1.638;2023-04-09T19:50:38;3.63;;;1.37;;
19609;SDS011;9952;47.122;-1.638;2023-04-09T19:55:25;1.20;;;1.10;;
19609;SDS011;9952;47.122;-1.638;2023-04-09T20:00:06;2.00;;;1.07;;
19609;SDS011;9952;47.122;-1.638;2023-04-09T20:04:47;4.13;;;1.50;;
19609;SDS011;9952;47.122;-1.638;2023-04-09T20:09:29;1.40;;;1.30;;
19609;SDS011;9952;47.122;-1.638;2023-04-09T20:14:11;2.13;;;1.40;;
19609;SDS011;9952;47.122;-1.638;2023-04-09T20:18:51;3.50;;;1.83;;
19609;SDS011;9952;47.122;-1.638;2023-04-09T20:23:32;4.43;;;2.70;;
19609;SDS011;9952;47.122;-1.638;2023-04-09T20:28:13;4.40;;;2.50;;
19609;SDS011;9952;47.122;-1.638;2023-04-09T20:32:54;5.40;;;1.90;;
19609;SDS011;9952;47.122;-1.638;2023-04-09T20:37:35;2.37;;;1.80;;
19609;SDS011;9952;47.122;-1.638;2023-04-09T20:42:15;2.50;;;1.40;;
19609;SDS011;9952;47.122;-1.638;2023-04-09T20:46:56;1.60;;;1.50;;
19609;SDS011;9952;47.122;-1.638;2023-04-09T20:51:37;2.27;;;1.10;;
19609;SDS011;9952;47.122;-1.638;2023-04-09T20:56:18;1.73;;;1.50;;
19609;SDS011;9952;47.122;-1.638;2023-04-09T21:01:02;2.53;;;1.50;;
19609;SDS011;9952;47.122;-1.638;2023-04-09T21:05:46;1.57;;;1.47;;
19609;SDS011;9952;47.122;-1.638;2023-04-09T21:10:26;1.70;;;1.07;;
19609;SDS011;9952;47.122;-1.638;2023-04-09T21:15:07;1.70;;;1.03;;
19609;SDS011;9952;47.122;-1.638;2023-04-09T21:19:48;5.47;;;1.87;;
19609;SDS011;9952;47.122;-1.638;2023-04-09T21:24:30;4.63;;;1.80;;
19609;SDS011;9952;47.122;-1.638;2023-04-09T21:29:12;5.23;;;1.70;;
19609;SDS011;9952;47.122;-1.638;2023-04-09T21:33:53;1.47;;;1.13;;
19609;SDS011;9952;47.122;-1.638;2023-04-09T21:38:34;5.23;;;1.60;;
19609;SDS011;9952;47.122;-1.638;2023-04-09T21:43:15;2.33;;;1.03;;
19609;SDS011;9952;47.122;-1.638;2023-04-09T21:47:56;1.20;;;1.10;;
19609;SDS011;9952;47.122;-1.638;2023-04-09T21:52:36;3.53;;;1.67;;
19609;SDS011;9952;47.122;-1.638;2023-04-09T21:57:17;2.50;;;1.20;;
19609;SDS011;9952;47.122;-1.638;2023-04-09T22:01:58;3.20;;;1.90;;
19609;SDS011;9952;47.122;-1.638;2023-04-09T22:06:39;3.23;;;1.40;;
19609;SDS011;9952;47.122;-1.638;2023-04-09T22:11:22;2.77;;;1.60;;
19609;SDS011;9952;47.122;-1.638;2023-04-09T22:16:04;4.67;;;2.00;;
19609;SDS011;9952;47.122;-1.638;2023-04-09T22:20:45;3.20;;;2.10;;
19609;SDS011;9952;47.122;-1.638;2023-04-09T22:25:26;4.83;;;2.00;;
19609;SDS011;9952;47.122;-1.638;2023-04-09T22:30:13;3.60;;;2.00;;
19609;SDS011;9952;47.122;-1.638;2023-04-09T22:34:54;3.43;;;1.73;;
19609;SDS011;9952;47.122;-1.638;2023-04-09T22:39:35;4.47;;;2.30;;
19609;SDS011;9952;47.122;-1.638;2023-04-09T22:44:16;3.20;;;2.00;;
19609;SDS011;9952;47.122;-1.638;2023-04-09T22:48:57;3.30;;;2.40;;
19609;SDS011;9952;47.122;-1.638;2023-04-09T22:53:38;4.27;;;2.47;;
19609;SDS011;9952;47.122;-1.638;2023-04-09T22:58:19;3.60;;;2.43;;
19609;SDS011;9952;47.122;-1.638;2023-04-09T23:03:00;6.23;;;2.33;;
19609;SDS011;9952;47.122;-1.638;2023-04-09T23:07:40;5.13;;;1.90;;
19609;SDS011;9952;47.122;-1.638;2023-04-09T23:12:21;2.93;;;1.80;;
19609;SDS011;9952;47.122;-1.638;2023-04-09T23:17:02;2.83;;;2.10;;
19609;SDS011;9952;47.122;-1.638;2023-04-09T23:21:43;4.13;;;1.60;;
19609;SDS011;9952;47.122;-1.638;2023-04-09T23:26:24;3.20;;;1.70;;
19609;SDS011;9952;47.122;-1.638;2023-04-09T23:31:05;3.83;;;1.90;;
19609;SDS011;9952;47.122;-1.638;2023-04-09T23:35:46;7.30;;;2.20;;
19609;SDS011;9952;47.122;-1.638;2023-04-09T23:40:27;2.93;;;1.77;;
19609;SDS011;9952;47.122;-1.638;2023-04-09T23:45:07;6.97;;;2.00;;
19609;SDS011;9952;47.122;-1.638;2023-04-09T23:49:49;3.43;;;2.27;;
19609;SDS011;9952;47.122;-1.638;2023-04-09T23:54:29;1.53;;;1.40;;
19609;SDS011;9952;47.122;-1.638;2023-04-09T23:59:11;4.17;;;1.77;;
